sensor_id;sensor_type;location;lat;lon;timestamp;P1;durP1;ratioP1;P2;durP2;ratioP2
41799;SDS011;27468;47.460;19.034;2024-01-06T00:01:43;32.07;;;21.00;;
41799;SDS011;27468;47.460;19.034;2024-01-06T00:04:08;28.80;;;20.33;;
41799;SDS011;27468;47.460;19.034;2024-01-06T00:06:34;29.00;;;19.90;;
41799;SDS011;27468;47.460;19.034;2024-01-06T00:08:59;28.33;;;19.47;;
41799;SDS011;27468;47.460;19.034;2024-01-06T00:11:25;28.55;;;20.20;;
41799;SDS011;27468;47.460;19.034;2024-01-06T00:13:50;30.90;;;21.77;;
41799;SDS011;27468;47.460;19.034;2024-01-06T00:16:16;29.73;;;20.43;;
41799;SDS011;27468;47.460;19.034;2024-01-06T00:18:43;30.50;;;20.00;;
41799;SDS011;27468;47.460;19.034;2024-01-06T00:21:08;29.07;;;20.37;;
41799;SDS011;27468;47.460;19.034;2024-01-06T00:23:36;28.67;;;19.83;;
41799;SDS011;27468;47.460;19.034;2024-01-06T00:26:01;29.03;;;20.00;;
41799;SDS011;27468;47.460;19.034;2024-01-06T00:28:27;30.52;;;20.17;;
41799;SDS011;27468;47.460;19.034;2024-01-06T00:30:52;29.37;;;20.57;;
41799;SDS011;27468;47.460;19.034;2024-01-06T00:33:18;29.70;;;21.17;;
41799;SDS011;27468;47.460;19.034;2024-01-06T00:35:43;30.67;;;20.77;;
41799;SDS011;27468;47.460;19.034;2024-01-06T00:38:09;29.97;;;21.00;;
41799;SDS011;27468;47.460;19.034;2024-01-06T00:40:34;30.67;;;21.30;;
41799;SDS011;27468;47.460;19.034;2024-01-06T00:42:59;29.57;;;21.63;;
41799;SDS011;27468;47.460;19.034;2024-01-06T00:45:25;28.83;;;20.50;;
41799;SDS011;27468;47.460;19.034;2024-01-06T00:47:50;30.97;;;21.57;;
41799;SDS011;27468;47.460;19.034;2024-01-06T00:50:15;28.80;;;20.77;;
41799;SDS011;27468;47.460;19.034;2024-01-06T00:52:43;30.80;;;21.33;;
41799;SDS011;27468;47.460;19.034;2024-01-06T00:55:08;30.83;;;21.83;;
41799;SDS011;27468;47.460;19.034;2024-01-06T00:57:34;31.87;;;21.73;;
41799;SDS011;27468;47.460;19.034;2024-01-06T00:59:59;32.13;;;22.57;;
41799;SDS011;27468;47.460;19.034;2024-01-06T01:02:24;32.53;;;22.03;;
41799;SDS011;27468;47.460;19.034;2024-01-06T01:04:50;34.07;;;22.63;;
41799;SDS011;27468;47.460;19.034;2024-01-06T01:07:15;29.63;;;20.53;;
41799;SDS011;27468;47.460;19.034;2024-01-06T01:09:41;33.03;;;21.53;;
41799;SDS011;27468;47.460;19.034;2024-01-06T01:12:06;32.93;;;22.10;;
41799;SDS011;27468;47.460;19.034;2024-01-06T01:14:31;31.47;;;21.60;;
41799;SDS011;27468;47.460;19.034;2024-01-06T01:16:56;33.40;;;22.80;;
41799;SDS011;27468;47.460;19.034;2024-01-06T01:19:22;31.07;;;21.90;;
41799;SDS011;27468;47.460;19.034;2024-01-06T01:21:47;33.93;;;22.27;;
41799;SDS011;27468;47.460;19.034;2024-01-06T01:24:12;32.57;;;21.93;;
41799;SDS011;27468;47.460;19.034;2024-01-06T01:26:38;32.53;;;22.27;;
41799;SDS011;27468;47.460;19.034;2024-01-06T01:29:03;31.30;;;21.93;;
41799;SDS011;27468;47.460;19.034;2024-01-06T01:31:28;32.00;;;22.27;;
41799;SDS011;27468;47.460;19.034;2024-01-06T01:33:54;32.00;;;22.37;;
41799;SDS011;27468;47.460;19.034;2024-01-06T01:36:19;31.57;;;21.73;;
41799;SDS011;27468;47.460;19.034;2024-01-06T01:38:44;32.40;;;21.77;;
41799;SDS011;27468;47.460;19.034;2024-01-06T01:41:10;32.13;;;21.63;;
41799;SDS011;27468;47.460;19.034;2024-01-06T01:43:35;33.60;;;22.87;;
41799;SDS011;27468;47.460;19.034;2024-01-06T01:46:00;33.43;;;22.23;;
41799;SDS011;27468;47.460;19.034;2024-01-06T01:48:26;30.75;;;21.83;;
41799;SDS011;27468;47.460;19.034;2024-01-06T01:50:52;31.48;;;21.83;;
41799;SDS011;27468;47.460;19.034;2024-01-06T01:53:18;30.30;;;21.38;;
41799;SDS011;27468;47.460;19.034;2024-01-06T01:55:45;31.30;;;21.63;;
41799;SDS011;27468;47.460;19.034;2024-01-06T01:58:12;31.00;;;21.35;;
41799;SDS011;27468;47.460;19.034;2024-01-06T02:00:38;31.80;;;21.77;;
41799;SDS011;27468;47.460;19.034;2024-01-06T02:03:04;31.83;;;22.38;;
41799;SDS011;27468;47.460;19.034;2024-01-06T02:05:31;33.30;;;22.13;;
41799;SDS011;27468;47.460;19.034;2024-01-06T02:07:56;31.03;;;21.73;;
41799;SDS011;27468;47.460;19.034;2024-01-06T02:10:22;29.70;;;21.55;;
41799;SDS011;27468;47.460;19.034;2024-01-06T02:12:48;32.58;;;22.00;;
41799;SDS011;27468;47.460;19.034;2024-01-06T02:15:13;30.48;;;21.10;;
41799;SDS011;27468;47.460;19.034;2024-01-06T02:17:39;29.75;;;20.83;;
41799;SDS011;27468;47.460;19.034;2024-01-06T02:20:05;30.47;;;21.53;;
41799;SDS011;27468;47.460;19.034;2024-01-06T02:22:32;30.98;;;21.92;;
41799;SDS011;27468;47.460;19.034;2024-01-06T02:24:59;32.28;;;21.88;;
41799;SDS011;27468;47.460;19.034;2024-01-06T02:27:24;29.43;;;20.73;;
41799;SDS011;27468;47.460;19.034;2024-01-06T02:29:50;28.87;;;20.30;;
41799;SDS011;27468;47.460;19.034;2024-01-06T02:32:15;29.43;;;20.43;;
41799;SDS011;27468;47.460;19.034;2024-01-06T02:34:40;28.87;;;20.10;;
41799;SDS011;27468;47.460;19.034;2024-01-06T02:37:06;28.10;;;20.33;;
41799;SDS011;27468;47.460;19.034;2024-01-06T02:39:31;29.30;;;20.40;;
41799;SDS011;27468;47.460;19.034;2024-01-06T02:41:56;31.83;;;20.93;;
41799;SDS011;27468;47.460;19.034;2024-01-06T02:44:22;29.67;;;20.63;;
41799;SDS011;27468;47.460;19.034;2024-01-06T02:46:47;28.77;;;20.83;;
41799;SDS011;27468;47.460;19.034;2024-01-06T02:49:12;29.37;;;20.23;;
41799;SDS011;27468;47.460;19.034;2024-01-06T02:51:37;29.93;;;20.27;;
41799;SDS011;27468;47.460;19.034;2024-01-06T02:54:03;28.87;;;20.27;;
41799;SDS011;27468;47.460;19.034;2024-01-06T02:56:29;27.30;;;19.67;;
41799;SDS011;27468;47.460;19.034;2024-01-06T02:58:54;27.93;;;20.10;;
41799;SDS011;27468;47.460;19.034;2024-01-06T03:01:20;25.80;;;18.83;;
41799;SDS011;27468;47.460;19.034;2024-01-06T03:03:45;28.10;;;19.60;;
41799;SDS011;27468;47.460;19.034;2024-01-06T03:06:10;27.63;;;19.87;;
41799;SDS011;27468;47.460;19.034;2024-01-06T03:08:35;29.03;;;20.10;;
41799;SDS011;27468;47.460;19.034;2024-01-06T03:11:01;30.87;;;21.53;;
41799;SDS011;27468;47.460;19.034;2024-01-06T03:13:28;30.00;;;21.92;;
41799;SDS011;27468;47.460;19.034;2024-01-06T03:15:54;32.70;;;21.37;;
41799;SDS011;27468;47.460;19.034;2024-01-06T03:18:19;30.50;;;21.27;;
41799;SDS011;27468;47.460;19.034;2024-01-06T03:20:44;29.50;;;21.73;;
41799;SDS011;27468;47.460;19.034;2024-01-06T03:23:10;31.10;;;22.00;;
41799;SDS011;27468;47.460;19.034;2024-01-06T03:25:35;32.13;;;22.13;;
41799;SDS011;27468;47.460;19.034;2024-01-06T03:28:00;31.10;;;22.30;;
41799;SDS011;27468;47.460;19.034;2024-01-06T03:30:26;30.97;;;22.33;;
41799;SDS011;27468;47.460;19.034;2024-01-06T03:32:51;31.67;;;22.00;;
41799;SDS011;27468;47.460;19.034;2024-01-06T03:35:16;30.80;;;21.67;;
41799;SDS011;27468;47.460;19.034;2024-01-06T03:37:42;31.80;;;22.00;;
41799;SDS011;27468;47.460;19.034;2024-01-06T03:40:08;47.63;;;30.10;;
41799;SDS011;27468;47.460;19.034;2024-01-06T03:42:34;31.10;;;21.80;;
41799;SDS011;27468;47.460;19.034;2024-01-06T03:44:59;32.10;;;21.73;;
41799;SDS011;27468;47.460;19.034;2024-01-06T03:47:24;31.07;;;22.43;;
41799;SDS011;27468;47.460;19.034;2024-01-06T03:49:49;33.03;;;22.47;;
41799;SDS011;27468;47.460;19.034;2024-01-06T03:52:15;29.90;;;21.30;;
41799;SDS011;27468;47.460;19.034;2024-01-06T03:54:40;33.87;;;22.23;;
41799;SDS011;27468;47.460;19.034;2024-01-06T03:57:05;28.60;;;21.70;;
41799;SDS011;27468;47.460;19.034;2024-01-06T03:59:31;29.93;;;21.33;;
41799;SDS011;27468;47.460;19.034;2024-01-06T04:01:56;30.70;;;21.90;;
41799;SDS011;27468;47.460;19.034;2024-01-06T04:04:21;30.13;;;21.77;;
41799;SDS011;27468;47.460;19.034;2024-01-06T04:06:46;30.17;;;22.37;;
41799;SDS011;27468;47.460;19.034;2024-01-06T04:09:12;29.77;;;21.60;;
41799;SDS011;27468;47.460;19.034;2024-01-06T04:11:37;30.43;;;21.23;;
41799;SDS011;27468;47.460;19.034;2024-01-06T04:14:03;30.03;;;21.87;;
41799;SDS011;27468;47.460;19.034;2024-01-06T04:16:28;30.95;;;22.67;;
41799;SDS011;27468;47.460;19.034;2024-01-06T04:18:53;32.25;;;22.80;;
41799;SDS011;27468;47.460;19.034;2024-01-06T04:21:19;32.47;;;23.55;;
41799;SDS011;27468;47.460;19.034;2024-01-06T04:23:44;33.28;;;23.73;;
41799;SDS011;27468;47.460;19.034;2024-01-06T04:26:11;33.67;;;23.95;;
41799;SDS011;27468;47.460;19.034;2024-01-06T04:28:36;33.63;;;24.15;;
41799;SDS011;27468;47.460;19.034;2024-01-06T04:31:01;33.67;;;23.27;;
41799;SDS011;27468;47.460;19.034;2024-01-06T04:33:27;33.90;;;24.30;;
41799;SDS011;27468;47.460;19.034;2024-01-06T04:35:52;33.27;;;23.67;;
41799;SDS011;27468;47.460;19.034;2024-01-06T04:38:18;33.77;;;23.30;;
41799;SDS011;27468;47.460;19.034;2024-01-06T04:40:43;32.67;;;23.13;;
41799;SDS011;27468;47.460;19.034;2024-01-06T04:43:08;34.60;;;24.40;;
41799;SDS011;27468;47.460;19.034;2024-01-06T04:45:34;33.13;;;23.57;;
41799;SDS011;27468;47.460;19.034;2024-01-06T04:47:59;34.00;;;22.80;;
41799;SDS011;27468;47.460;19.034;2024-01-06T04:50:25;34.10;;;23.13;;
41799;SDS011;27468;47.460;19.034;2024-01-06T04:52:50;35.60;;;25.00;;
41799;SDS011;27468;47.460;19.034;2024-01-06T04:55:15;33.93;;;24.50;;
41799;SDS011;27468;47.460;19.034;2024-01-06T04:57:40;33.70;;;24.10;;
41799;SDS011;27468;47.460;19.034;2024-01-06T05:00:06;36.50;;;24.47;;
41799;SDS011;27468;47.460;19.034;2024-01-06T05:02:32;34.42;;;24.02;;
41799;SDS011;27468;47.460;19.034;2024-01-06T05:04:57;32.55;;;23.45;;
41799;SDS011;27468;47.460;19.034;2024-01-06T05:07:23;33.77;;;23.70;;
41799;SDS011;27468;47.460;19.034;2024-01-06T05:09:48;35.97;;;23.80;;
41799;SDS011;27468;47.460;19.034;2024-01-06T05:12:13;34.53;;;23.40;;
41799;SDS011;27468;47.460;19.034;2024-01-06T05:14:39;33.07;;;23.30;;
41799;SDS011;27468;47.460;19.034;2024-01-06T05:17:04;32.92;;;23.40;;
41799;SDS011;27468;47.460;19.034;2024-01-06T05:19:30;32.72;;;23.08;;
41799;SDS011;27468;47.460;19.034;2024-01-06T05:21:56;33.22;;;23.83;;
41799;SDS011;27468;47.460;19.034;2024-01-06T05:24:22;34.92;;;24.08;;
41799;SDS011;27468;47.460;19.034;2024-01-06T05:26:47;33.67;;;24.57;;
41799;SDS011;27468;47.460;19.034;2024-01-06T05:29:12;34.57;;;23.80;;
41799;SDS011;27468;47.460;19.034;2024-01-06T05:31:38;35.30;;;23.87;;
41799;SDS011;27468;47.460;19.034;2024-01-06T05:34:03;34.20;;;24.17;;
41799;SDS011;27468;47.460;19.034;2024-01-06T05:36:29;32.22;;;23.40;;
41799;SDS011;27468;47.460;19.034;2024-01-06T05:38:55;33.63;;;24.20;;
41799;SDS011;27468;47.460;19.034;2024-01-06T05:41:20;32.37;;;23.47;;
41799;SDS011;27468;47.460;19.034;2024-01-06T05:43:45;32.00;;;22.40;;
41799;SDS011;27468;47.460;19.034;2024-01-06T05:46:11;34.33;;;23.77;;
41799;SDS011;27468;47.460;19.034;2024-01-06T05:48:36;34.27;;;24.47;;
41799;SDS011;27468;47.460;19.034;2024-01-06T05:51:04;32.60;;;23.55;;
41799;SDS011;27468;47.460;19.034;2024-01-06T05:53:30;33.50;;;23.85;;
41799;SDS011;27468;47.460;19.034;2024-01-06T05:55:56;34.30;;;23.73;;
41799;SDS011;27468;47.460;19.034;2024-01-06T05:58:21;36.20;;;24.80;;
41799;SDS011;27468;47.460;19.034;2024-01-06T06:00:46;34.20;;;24.73;;
41799;SDS011;27468;47.460;19.034;2024-01-06T06:03:12;37.40;;;25.67;;
41799;SDS011;27468;47.460;19.034;2024-01-06T06:05:37;34.90;;;24.23;;
41799;SDS011;27468;47.460;19.034;2024-01-06T06:08:03;36.00;;;24.70;;
41799;SDS011;27468;47.460;19.034;2024-01-06T06:10:28;35.20;;;24.17;;
41799;SDS011;27468;47.460;19.034;2024-01-06T06:13:05;36.63;;;24.58;;
41799;SDS011;27468;47.460;19.034;2024-01-06T06:15:31;37.55;;;25.63;;
41799;SDS011;27468;47.460;19.034;2024-01-06T06:17:57;38.03;;;25.40;;
41799;SDS011;27468;47.460;19.034;2024-01-06T06:20:25;34.75;;;24.95;;
41799;SDS011;27468;47.460;19.034;2024-01-06T06:22:50;34.90;;;24.67;;
41799;SDS011;27468;47.460;19.034;2024-01-06T06:25:16;38.83;;;26.00;;
41799;SDS011;27468;47.460;19.034;2024-01-06T06:27:41;34.23;;;24.53;;
41799;SDS011;27468;47.460;19.034;2024-01-06T06:30:07;37.07;;;24.80;;
41799;SDS011;27468;47.460;19.034;2024-01-06T06:32:33;36.53;;;24.33;;
41799;SDS011;27468;47.460;19.034;2024-01-06T06:34:58;34.27;;;24.50;;
41799;SDS011;27468;47.460;19.034;2024-01-06T06:37:23;34.23;;;23.57;;
41799;SDS011;27468;47.460;19.034;2024-01-06T06:39:49;39.37;;;24.80;;
41799;SDS011;27468;47.460;19.034;2024-01-06T06:42:14;34.77;;;23.63;;
41799;SDS011;27468;47.460;19.034;2024-01-06T06:44:39;36.33;;;24.00;;
41799;SDS011;27468;47.460;19.034;2024-01-06T06:47:05;38.70;;;25.60;;
41799;SDS011;27468;47.460;19.034;2024-01-06T06:49:31;37.13;;;25.13;;
41799;SDS011;27468;47.460;19.034;2024-01-06T06:51:57;34.65;;;24.27;;
41799;SDS011;27468;47.460;19.034;2024-01-06T06:54:22;34.57;;;23.73;;
41799;SDS011;27468;47.460;19.034;2024-01-06T06:56:47;35.30;;;24.53;;
41799;SDS011;27468;47.460;19.034;2024-01-06T06:59:12;35.23;;;23.93;;
41799;SDS011;27468;47.460;19.034;2024-01-06T07:01:39;34.88;;;24.50;;
41799;SDS011;27468;47.460;19.034;2024-01-06T07:04:04;33.87;;;24.60;;
41799;SDS011;27468;47.460;19.034;2024-01-06T07:06:29;31.30;;;21.67;;
41799;SDS011;27468;47.460;19.034;2024-01-06T07:08:56;31.15;;;21.73;;
41799;SDS011;27468;47.460;19.034;2024-01-06T07:11:21;30.53;;;20.47;;
41799;SDS011;27468;47.460;19.034;2024-01-06T07:13:46;32.72;;;21.98;;
41799;SDS011;27468;47.460;19.034;2024-01-06T07:16:12;31.48;;;21.10;;
41799;SDS011;27468;47.460;19.034;2024-01-06T07:18:38;30.87;;;20.67;;
41799;SDS011;27468;47.460;19.034;2024-01-06T07:21:06;30.97;;;21.43;;
41799;SDS011;27468;47.460;19.034;2024-01-06T07:23:32;33.60;;;21.88;;
41799;SDS011;27468;47.460;19.034;2024-01-06T07:25:57;33.92;;;22.38;;
41799;SDS011;27468;47.460;19.034;2024-01-06T07:28:23;30.50;;;20.60;;
41799;SDS011;27468;47.460;19.034;2024-01-06T07:30:48;30.90;;;21.77;;
41799;SDS011;27468;47.460;19.034;2024-01-06T07:33:13;31.27;;;21.77;;
41799;SDS011;27468;47.460;19.034;2024-01-06T07:35:39;30.00;;;21.47;;
41799;SDS011;27468;47.460;19.034;2024-01-06T07:38:08;29.02;;;20.15;;
41799;SDS011;27468;47.460;19.034;2024-01-06T07:40:36;30.40;;;20.33;;
41799;SDS011;27468;47.460;19.034;2024-01-06T07:43:02;31.07;;;21.03;;
41799;SDS011;27468;47.460;19.034;2024-01-06T07:45:29;28.95;;;20.15;;
41799;SDS011;27468;47.460;19.034;2024-01-06T07:47:55;28.95;;;20.25;;
41799;SDS011;27468;47.460;19.034;2024-01-06T07:50:20;29.97;;;20.73;;
41799;SDS011;27468;47.460;19.034;2024-01-06T07:52:45;29.40;;;20.20;;
41799;SDS011;27468;47.460;19.034;2024-01-06T07:55:11;31.93;;;20.90;;
41799;SDS011;27468;47.460;19.034;2024-01-06T07:57:36;30.20;;;20.67;;
41799;SDS011;27468;47.460;19.034;2024-01-06T08:00:01;32.27;;;20.97;;
41799;SDS011;27468;47.460;19.034;2024-01-06T08:02:27;31.83;;;21.55;;
41799;SDS011;27468;47.460;19.034;2024-01-06T08:04:52;32.95;;;21.63;;
41799;SDS011;27468;47.460;19.034;2024-01-06T08:07:20;34.40;;;22.67;;
41799;SDS011;27468;47.460;19.034;2024-01-06T08:09:46;35.37;;;23.63;;
41799;SDS011;27468;47.460;19.034;2024-01-06T08:12:11;37.30;;;23.63;;
41799;SDS011;27468;47.460;19.034;2024-01-06T08:14:37;31.27;;;21.13;;
41799;SDS011;27468;47.460;19.034;2024-01-06T08:17:02;30.80;;;21.13;;
41799;SDS011;27468;47.460;19.034;2024-01-06T08:19:28;28.85;;;20.25;;
41799;SDS011;27468;47.460;19.034;2024-01-06T08:21:55;29.42;;;19.73;;
41799;SDS011;27468;47.460;19.034;2024-01-06T08:24:20;32.00;;;20.33;;
41799;SDS011;27468;47.460;19.034;2024-01-06T08:26:46;24.47;;;16.97;;
41799;SDS011;27468;47.460;19.034;2024-01-06T08:29:12;25.80;;;18.55;;
41799;SDS011;27468;47.460;19.034;2024-01-06T08:31:39;25.83;;;17.10;;
41799;SDS011;27468;47.460;19.034;2024-01-06T08:34:04;28.90;;;19.40;;
41799;SDS011;27468;47.460;19.034;2024-01-06T08:36:31;27.05;;;18.60;;
41799;SDS011;27468;47.460;19.034;2024-01-06T08:38:56;27.40;;;18.63;;
41799;SDS011;27468;47.460;19.034;2024-01-06T08:41:21;30.03;;;20.63;;
41799;SDS011;27468;47.460;19.034;2024-01-06T08:43:47;29.50;;;19.13;;
41799;SDS011;27468;47.460;19.034;2024-01-06T08:46:12;26.13;;;18.40;;
41799;SDS011;27468;47.460;19.034;2024-01-06T08:48:37;26.40;;;18.40;;
41799;SDS011;27468;47.460;19.034;2024-01-06T08:51:03;27.63;;;18.73;;
41799;SDS011;27468;47.460;19.034;2024-01-06T08:53:28;28.60;;;18.60;;
41799;SDS011;27468;47.460;19.034;2024-01-06T08:55:53;25.57;;;17.63;;
41799;SDS011;27468;47.460;19.034;2024-01-06T08:58:19;26.00;;;17.60;;
41799;SDS011;27468;47.460;19.034;2024-01-06T09:00:44;24.63;;;17.13;;
41799;SDS011;27468;47.460;19.034;2024-01-06T09:03:09;27.90;;;17.93;;
41799;SDS011;27468;47.460;19.034;2024-01-06T09:05:37;25.10;;;17.83;;
41799;SDS011;27468;47.460;19.034;2024-01-06T09:08:02;24.27;;;17.50;;
41799;SDS011;27468;47.460;19.034;2024-01-06T09:10:28;24.83;;;18.42;;
41799;SDS011;27468;47.460;19.034;2024-01-06T09:12:54;25.55;;;18.00;;
41799;SDS011;27468;47.460;19.034;2024-01-06T09:15:20;25.50;;;17.08;;
41799;SDS011;27468;47.460;19.034;2024-01-06T09:17:45;26.87;;;17.47;;
41799;SDS011;27468;47.460;19.034;2024-01-06T09:20:10;26.47;;;17.80;;
41799;SDS011;27468;47.460;19.034;2024-01-06T09:22:36;25.70;;;18.63;;
41799;SDS011;27468;47.460;19.034;2024-01-06T09:25:01;23.20;;;16.80;;
41799;SDS011;27468;47.460;19.034;2024-01-06T09:27:27;21.85;;;16.33;;
41799;SDS011;27468;47.460;19.034;2024-01-06T09:29:52;23.77;;;15.73;;
41799;SDS011;27468;47.460;19.034;2024-01-06T09:32:17;24.93;;;16.93;;
41799;SDS011;27468;47.460;19.034;2024-01-06T09:34:43;26.43;;;17.30;;
41799;SDS011;27468;47.460;19.034;2024-01-06T09:37:08;21.83;;;15.10;;
41799;SDS011;27468;47.460;19.034;2024-01-06T09:39:33;21.50;;;15.73;;
41799;SDS011;27468;47.460;19.034;2024-01-06T09:41:59;20.77;;;15.33;;
41799;SDS011;27468;47.460;19.034;2024-01-06T09:44:24;22.27;;;15.60;;
41799;SDS011;27468;47.460;19.034;2024-01-06T09:46:50;24.13;;;17.07;;
41799;SDS011;27468;47.460;19.034;2024-01-06T09:49:18;24.20;;;15.40;;
41799;SDS011;27468;47.460;19.034;2024-01-06T09:51:48;20.05;;;15.30;;
41799;SDS011;27468;47.460;19.034;2024-01-06T09:54:16;20.17;;;14.77;;
41799;SDS011;27468;47.460;19.034;2024-01-06T09:56:49;21.33;;;15.23;;
41799;SDS011;27468;47.460;19.034;2024-01-06T09:59:15;20.77;;;15.43;;
41799;SDS011;27468;47.460;19.034;2024-01-06T10:01:40;21.52;;;15.35;;
41799;SDS011;27468;47.460;19.034;2024-01-06T10:04:06;22.98;;;15.25;;
41799;SDS011;27468;47.460;19.034;2024-01-06T10:06:32;21.70;;;14.90;;
41799;SDS011;27468;47.460;19.034;2024-01-06T10:08:57;21.90;;;15.23;;
41799;SDS011;27468;47.460;19.034;2024-01-06T10:11:23;21.30;;;15.27;;
41799;SDS011;27468;47.460;19.034;2024-01-06T10:13:49;24.08;;;16.83;;
41799;SDS011;27468;47.460;19.034;2024-01-06T10:16:21;24.13;;;16.55;;
41799;SDS011;27468;47.460;19.034;2024-01-06T10:18:47;21.60;;;15.75;;
41799;SDS011;27468;47.460;19.034;2024-01-06T10:21:13;21.98;;;15.27;;
41799;SDS011;27468;47.460;19.034;2024-01-06T10:23:42;24.15;;;15.93;;
41799;SDS011;27468;47.460;19.034;2024-01-06T10:26:08;22.87;;;16.20;;
41799;SDS011;27468;47.460;19.034;2024-01-06T10:28:37;22.13;;;15.63;;
41799;SDS011;27468;47.460;19.034;2024-01-06T10:31:03;23.27;;;15.90;;
41799;SDS011;27468;47.460;19.034;2024-01-06T10:33:28;24.42;;;17.38;;
41799;SDS011;27468;47.460;19.034;2024-01-06T10:35:54;22.37;;;16.40;;
41799;SDS011;27468;47.460;19.034;2024-01-06T10:38:20;21.80;;;16.00;;
41799;SDS011;27468;47.460;19.034;2024-01-06T10:40:55;22.13;;;16.00;;
41799;SDS011;27468;47.460;19.034;2024-01-06T10:43:23;21.83;;;15.43;;
41799;SDS011;27468;47.460;19.034;2024-01-06T10:45:50;25.50;;;17.83;;
41799;SDS011;27468;47.460;19.034;2024-01-06T10:48:18;24.55;;;16.65;;
41799;SDS011;27468;47.460;19.034;2024-01-06T10:50:45;25.52;;;17.58;;
41799;SDS011;27468;47.460;19.034;2024-01-06T10:53:11;24.85;;;16.80;;
41799;SDS011;27468;47.460;19.034;2024-01-06T10:55:40;25.63;;;16.63;;
41799;SDS011;27468;47.460;19.034;2024-01-06T10:58:06;23.17;;;16.58;;
41799;SDS011;27468;47.460;19.034;2024-01-06T11:00:32;23.47;;;15.83;;
41799;SDS011;27468;47.460;19.034;2024-01-06T11:02:58;26.38;;;17.85;;
41799;SDS011;27468;47.460;19.034;2024-01-06T11:05:24;25.00;;;16.70;;
41799;SDS011;27468;47.460;19.034;2024-01-06T11:07:50;27.20;;;17.60;;
41799;SDS011;27468;47.460;19.034;2024-01-06T11:10:20;24.50;;;17.35;;
41799;SDS011;27468;47.460;19.034;2024-01-06T11:13:05;26.30;;;17.00;;
41799;SDS011;27468;47.460;19.034;2024-01-06T11:18:09;24.75;;;18.10;;
41799;SDS011;27468;47.460;19.034;2024-01-06T11:20:34;28.35;;;19.05;;
41799;SDS011;27468;47.460;19.034;2024-01-06T11:25:57;26.13;;;18.10;;
41799;SDS011;27468;47.460;19.034;2024-01-06T11:28:23;28.30;;;18.67;;
41799;SDS011;27468;47.460;19.034;2024-01-06T11:31:04;27.90;;;18.85;;
41799;SDS011;27468;47.460;19.034;2024-01-06T11:33:30;34.05;;;22.30;;
41799;SDS011;27468;47.460;19.034;2024-01-06T11:35:56;28.00;;;18.70;;
41799;SDS011;27468;47.460;19.034;2024-01-06T11:38:21;28.63;;;19.40;;
41799;SDS011;27468;47.460;19.034;2024-01-06T11:40:47;30.20;;;19.98;;
41799;SDS011;27468;47.460;19.034;2024-01-06T11:43:13;26.53;;;19.73;;
41799;SDS011;27468;47.460;19.034;2024-01-06T11:45:40;28.40;;;20.05;;
41799;SDS011;27468;47.460;19.034;2024-01-06T11:48:07;27.73;;;18.70;;
41799;SDS011;27468;47.460;19.034;2024-01-06T11:50:35;27.75;;;19.83;;
41799;SDS011;27468;47.460;19.034;2024-01-06T11:53:02;32.22;;;21.35;;
41799;SDS011;27468;47.460;19.034;2024-01-06T11:55:28;32.60;;;21.35;;
41799;SDS011;27468;47.460;19.034;2024-01-06T11:57:56;30.23;;;20.63;;
41799;SDS011;27468;47.460;19.034;2024-01-06T12:00:26;27.63;;;19.35;;
41799;SDS011;27468;47.460;19.034;2024-01-06T12:02:55;33.80;;;21.35;;
41799;SDS011;27468;47.460;19.034;2024-01-06T12:05:23;32.85;;;21.42;;
41799;SDS011;27468;47.460;19.034;2024-01-06T12:08:01;33.97;;;22.40;;
41799;SDS011;27468;47.460;19.034;2024-01-06T12:10:31;28.50;;;19.85;;
41799;SDS011;27468;47.460;19.034;2024-01-06T12:12:58;29.70;;;20.85;;
41799;SDS011;27468;47.460;19.034;2024-01-06T12:15:25;30.42;;;20.30;;
41799;SDS011;27468;47.460;19.034;2024-01-06T12:17:52;31.20;;;21.40;;
41799;SDS011;27468;47.460;19.034;2024-01-06T12:20:17;30.00;;;20.83;;
41799;SDS011;27468;47.460;19.034;2024-01-06T12:22:42;34.63;;;22.60;;
41799;SDS011;27468;47.460;19.034;2024-01-06T12:25:09;31.47;;;21.23;;
41799;SDS011;27468;47.460;19.034;2024-01-06T12:27:35;29.73;;;20.60;;
41799;SDS011;27468;47.460;19.034;2024-01-06T12:30:00;31.10;;;21.30;;
41799;SDS011;27468;47.460;19.034;2024-01-06T12:32:26;31.52;;;21.35;;
41799;SDS011;27468;47.460;19.034;2024-01-06T12:34:52;33.77;;;22.83;;
41799;SDS011;27468;47.460;19.034;2024-01-06T12:37:17;30.07;;;21.63;;
41799;SDS011;27468;47.460;19.034;2024-01-06T12:39:42;32.10;;;21.73;;
41799;SDS011;27468;47.460;19.034;2024-01-06T12:42:10;34.67;;;22.85;;
41799;SDS011;27468;47.460;19.034;2024-01-06T12:44:36;35.72;;;23.70;;
41799;SDS011;27468;47.460;19.034;2024-01-06T12:47:03;37.57;;;24.73;;
41799;SDS011;27468;47.460;19.034;2024-01-06T12:49:29;36.93;;;24.27;;
41799;SDS011;27468;47.460;19.034;2024-01-06T12:51:54;33.87;;;22.63;;
41799;SDS011;27468;47.460;19.034;2024-01-06T12:54:20;37.78;;;24.63;;
41799;SDS011;27468;47.460;19.034;2024-01-06T12:56:45;39.88;;;25.67;;
41799;SDS011;27468;47.460;19.034;2024-01-06T12:59:11;37.80;;;24.50;;
41799;SDS011;27468;47.460;19.034;2024-01-06T13:01:36;38.50;;;24.90;;
41799;SDS011;27468;47.460;19.034;2024-01-06T13:04:02;35.40;;;23.53;;
41799;SDS011;27468;47.460;19.034;2024-01-06T13:06:27;42.07;;;25.80;;
41799;SDS011;27468;47.460;19.034;2024-01-06T13:08:53;43.85;;;26.95;;
41799;SDS011;27468;47.460;19.034;2024-01-06T13:11:18;39.85;;;25.85;;
41799;SDS011;27468;47.460;19.034;2024-01-06T13:13:44;36.45;;;24.17;;
41799;SDS011;27468;47.460;19.034;2024-01-06T13:16:09;39.13;;;25.47;;
41799;SDS011;27468;47.460;19.034;2024-01-06T13:18:35;40.00;;;25.53;;
41799;SDS011;27468;47.460;19.034;2024-01-06T13:21:00;40.73;;;26.03;;
41799;SDS011;27468;47.460;19.034;2024-01-06T13:23:26;42.55;;;26.65;;
41799;SDS011;27468;47.460;19.034;2024-01-06T13:25:52;39.57;;;25.30;;
41799;SDS011;27468;47.460;19.034;2024-01-06T13:28:17;38.43;;;24.10;;
41799;SDS011;27468;47.460;19.034;2024-01-06T13:30:42;40.53;;;25.20;;
41799;SDS011;27468;47.460;19.034;2024-01-06T13:33:08;36.23;;;23.87;;
41799;SDS011;27468;47.460;19.034;2024-01-06T13:35:36;41.83;;;25.95;;
41799;SDS011;27468;47.460;19.034;2024-01-06T13:38:02;39.28;;;24.40;;
41799;SDS011;27468;47.460;19.034;2024-01-06T13:40:29;38.95;;;24.20;;
41799;SDS011;27468;47.460;19.034;2024-01-06T13:42:54;37.30;;;24.43;;
41799;SDS011;27468;47.460;19.034;2024-01-06T13:45:20;41.83;;;25.83;;
41799;SDS011;27468;47.460;19.034;2024-01-06T13:47:46;43.25;;;26.92;;
41799;SDS011;27468;47.460;19.034;2024-01-06T13:50:12;38.42;;;24.90;;
41799;SDS011;27468;47.460;19.034;2024-01-06T13:52:38;44.70;;;27.20;;
41799;SDS011;27468;47.460;19.034;2024-01-06T13:55:04;42.55;;;26.58;;
41799;SDS011;27468;47.460;19.034;2024-01-06T13:57:31;46.05;;;27.90;;
41799;SDS011;27468;47.460;19.034;2024-01-06T13:59:56;41.23;;;26.33;;
41799;SDS011;27468;47.460;19.034;2024-01-06T14:02:22;41.10;;;26.20;;
41799;SDS011;27468;47.460;19.034;2024-01-06T14:04:48;43.78;;;27.38;;
41799;SDS011;27468;47.460;19.034;2024-01-06T14:07:13;43.90;;;27.42;;